Latest Weather Observations for High Range (Wanganderry)

IDN60801

Issued at 8:52 am EDT Tuesday 22 January 2019 (issued every 10 minutes, with the page automatically refreshed every 10 minutes)

About weather observations | Map of weather stations | Latest weather observations for NSW | Other Formats
Station Details ID: 068262 Name: HIGH RANGE AWS (WANGANDERRY) Lat: -34.33 Lon: 150.27 Height: 813.6 m
Data from the previous 72 hours. | See also: Recent months for locations in New South Wales
Date/Time
EDT
Temp
°C
App
Temp
°C
Dew
Point
°C
Rel
Hum
%
Delta-T
°C
Wind Press
QNH
hPa
Press
MSL
hPa
Rain since
9am
mm
Dir  Spd
km/h
Gust
km/h
Spd
kts
Gust
kts
22/08:30am 21.5 23.4 18.5 83 1.9 N 6 9 3 5 1019.5 1015.5 0.2
22/08:00am 20.5 21.6 17.9 85 1.7 N 9 13 5 7 1019.2 1015.2 0.2
22/07:30am 19.3 19.9 17.8 91 1.0 N 11 15 6 8 1019.0 1015.0 0.2
22/07:00am 18.0 18.7 18.0 100 0.0 N 11 13 6 7 1018.8 1014.7 0.2
22/06:30am 17.2 18.3 17.2 100 0.0 N 7 9 4 5 1018.8 1014.7 0.2
22/06:00am 17.5 17.6 17.5 100 0.0 N 13 15 7 8 1018.5 1014.4 0.2
22/05:30am 17.5 18.0 17.5 100 0.0 N 11 13 6 7 1018.4 1014.3 0.2
22/05:00am 17.5 18.0 17.5 100 0.0 N 11 15 6 8 1018.1 1014.1 0.2
22/04:30am 17.4 17.5 17.4 100 0.0 NNE 13 13 7 7 1018.0 1014.0 0.2
22/04:00am 17.3 17.7 17.3 100 0.0 N 11 13 6 7 1018.2 1014.2 0.2
22/03:30am 17.8 18.1 17.8 100 0.0 N 13 17 7 9 1018.5 1014.4 0.0
22/03:00am 17.9 18.6 17.9 100 0.0 N 11 13 6 7 1018.7 1014.6 0.0
22/02:30am 18.2 18.6 18.2 100 0.0 N 13 15 7 8 1018.9 1014.9 0.0
22/02:00am 18.4 18.2 18.4 100 0.0 NNE 17 20 9 11 1019.1 1015.1 0.0
22/01:30am 18.4 17.8 18.4 100 0.0 NNE 19 22 10 12 1019.2 1015.2 0.0
22/01:00am 18.6 18.1 18.6 100 0.0 NNE 19 22 10 12 1019.4 1015.4 0.0
22/12:30am 18.7 18.0 18.7 100 0.0 NNE 20 28 11 15 1019.7 1015.6 0.0
22/12:00am 18.5 17.9 18.5 100 0.0 NNE 19 24 10 13 1019.8 1015.7 0.0
 
Date/Time
EDT
Temp
°C
App
Temp
°C
Dew
Point
°C
Rel
Hum
%
Delta-T
°C
Wind Press
QNH
hPa
Press
MSL
hPa
Rain since
9am
mm
Dir  Spd
km/h
Gust
km/h
Spd
kts
Gust
kts
21/11:30pm 18.4 18.5 18.4 100 0.0 NNE 15 20 8 11 1020.1 1016.1 0.0
21/11:00pm 18.4 18.5 18.4 100 0.0 NNE 15 20 8 11 1020.2 1016.2 0.0
21/10:30pm 18.4 18.9 18.4 100 0.0 NNE 13 17 7 9 1020.6 1016.6 0.0
21/10:00pm 18.5 18.7 18.5 100 0.0 NNE 15 20 8 11 1020.5 1016.5 0.0
21/09:30pm 18.4 18.2 18.4 100 0.0 NNE 17 20 9 11 1020.0 1016.0 0.0
21/09:00pm 18.3 18.8 18.3 100 0.0 NNE 13 17 7 9 1019.9 1015.8 0.0
21/08:30pm 18.5 18.7 18.5 100 0.0 NNE 15 19 8 10 1019.5 1015.5 0.0
21/08:00pm 18.7 18.8 18.4 98 0.2 NNE 15 19 8 10 1019.7 1015.6 0.0
21/07:30pm 18.8 18.0 18.0 95 0.5 NE 19 20 10 11 1019.4 1015.4 0.0
21/07:00pm 19.2 18.6 17.5 90 1.1 NNE 17 20 9 11 1019.3 1015.3 0.0
21/06:30pm 19.7 19.5 17.7 88 1.3 NE 15 20 8 11 1019.2 1015.2 0.0
21/06:00pm 19.9 19.8 16.9 83 1.9 NNE 13 17 7 9 1019.2 1015.2 0.0
21/05:30pm 20.3 21.0 17.9 86 1.5 N 11 13 6 7 1019.4 1015.4 0.0
21/05:00pm 20.7 21.9 18.3 86 1.5 N 9 13 5 7 1019.4 1015.4 0.0
21/04:30pm 20.6 20.9 18.0 85 1.7 N 13 20 7 11 1019.4 1015.4 0.0
21/04:00pm 20.9 20.5 17.1 79 2.4 N 15 20 8 11 1019.5 1015.5 0.0
21/03:30pm 21.3 21.1 17.5 79 2.4 NNE 15 20 8 11 1019.9 1015.8 0.0
21/03:00pm 21.4 20.9 16.8 75 2.9 NNE 15 19 8 10 1020.3 1016.3 0.0
21/02:30pm 21.7 20.8 16.9 74 3.0 NNE 17 20 9 11 1020.4 1016.4 0.0
21/02:00pm 22.1 21.9 17.7 76 2.8 N 15 20 8 11 1020.6 1016.6 0.0
21/01:30pm 21.8 21.0 18.0 79 2.4 N 19 24 10 13 1020.8 1016.8 0.0
21/01:00pm 20.6 19.7 16.8 79 2.4 N 17 22 9 12 1021.3 1017.3 0.0
21/12:30pm 20.0 18.7 16.8 82 2.0 NNE 19 24 10 13 1021.7 1017.7 0.0
21/12:00pm 19.4 19.0 18.9 97 0.3 NE 19 24 10 13 1021.9 1017.9 0.0
21/11:30am 18.5 18.3 18.5 100 0.0 NNE 17 20 9 11 1022.1 1018.1 0.0
21/11:00am 18.8 19.1 18.8 100 0.0 NE 15 19 8 10 1022.5 1018.5 0.0
21/10:30am 18.3 18.0 18.3 100 0.0 NE 17 20 9 11 1022.6 1018.6 0.0
21/10:00am 17.6 18.2 17.6 100 0.0 NE 11 17 6 9 1022.7 1018.7 0.0
21/09:30am 17.6 17.4 17.6 100 0.0 NE 15 20 8 11 1022.6 1018.6 0.0
21/09:00am 17.7 17.9 17.7 100 0.0 NE 13 17 7 9 1022.3 1018.3 1.8
21/08:30am 17.4 17.9 17.4 100 0.0 SSW 11 15 6 8 1021.3 1017.3 1.8
21/08:00am 17.2 16.4 17.2 100 0.0 SSW 17 19 9 10 1020.8 1016.8 1.8
21/07:30am 17.1 17.1 17.1 100 0.0 SSW 13 15 7 8 1020.5 1016.5 1.8
21/07:00am 17.1 16.7 17.1 100 0.0 SSW 15 17 8 9 1021.0 1016.9 1.8
21/06:30am 17.0 18.3 17.0 100 0.0 NNE 6 7 3 4 1021.2 1017.2 1.8
21/06:00am 17.1 17.4 17.1 100 0.0 NNE 11 15 6 8 1021.4 1017.4 1.8
21/05:30am 17.2 16.4 17.2 100 0.0 NE 17 22 9 12 1021.2 1017.2 1.8
21/05:00am 17.2 16.4 17.2 100 0.0 NE 17 24 9 13 1020.7 1016.7 1.8
21/04:30am 17.2 17.6 17.2 100 0.0 NNE 11 19 6 10 1021.0 1016.9 1.8
21/04:00am 17.4 15.8 17.4 100 0.0 NE 22 33 12 18 1021.1 1017.0 1.8
21/03:30am 17.5 15.9 17.5 100 0.0 NE 22 30 12 16 1021.0 1016.9 1.8
21/03:00am 17.5 16.3 17.5 100 0.0 NE 20 26 11 14 1021.5 1017.5 1.6
21/02:30am 17.5 16.5 17.5 100 0.0 NE 19 22 10 12 1021.8 1017.8 1.6
21/02:00am 17.6 17.4 17.6 100 0.0 NNW 15 20 8 11 1023.0 1019.0 1.4
21/01:30am 17.4 17.5 17.4 100 0.0 NE 13 17 7 9 1022.9 1018.9 1.2
21/01:00am 17.4 16.7 17.4 100 0.0 NE 17 20 9 11 1022.8 1018.8 1.0
21/12:30am 17.3 16.6 17.3 100 0.0 NE 17 20 9 11 1022.6 1018.6 0.8
21/12:00am 17.4 16.7 17.4 100 0.0 NNE 17 24 9 13 1022.7 1018.7 0.4
 
Date/Time
EDT
Temp
°C
App
Temp
°C
Dew
Point
°C
Rel
Hum
%
Delta-T
°C
Wind Press
QNH
hPa
Press
MSL
hPa
Rain since
9am
mm
Dir  Spd
km/h
Gust
km/h
Spd
kts
Gust
kts
20/11:30pm 17.4 16.3 17.4 100 0.0 NE 19 26 10 14 1022.4 1018.4 0.2
20/11:00pm 17.5 16.3 17.5 100 0.0 NE 20 26 11 14 1022.5 1018.5 0.2
20/10:30pm 17.6 16.6 17.6 100 0.0 NE 19 24 10 13 1022.9 1018.9 0.0
20/10:00pm 17.8 17.7 17.8 100 0.0 NE 15 20 8 11 1022.8 1018.8 0.0
20/09:30pm 18.0 17.6 18.0 100 0.0 NE 17 20 9 11 1022.5 1018.5 0.0
20/09:00pm 18.1 17.7 18.1 100 0.0 NE 17 24 9 13 1022.0 1018.0 0.0
20/08:30pm 18.6 18.0 18.4 99 0.1 NE 19 24 10 13 1021.8 1017.8 0.0
20/08:00pm 19.2 18.9 18.2 94 0.6 NE 17 20 9 11 1021.3 1017.3 0.0
20/07:30pm 19.5 19.2 18.3 93 0.8 NE 17 22 9 12 1020.6 1016.6 0.0
20/07:00pm 19.6 19.7 18.4 93 0.8 NE 15 20 8 11 1020.5 1016.5 0.0
20/06:30pm 19.7 19.9 18.5 93 0.8 NE 15 20 8 11 1020.6 1016.6 0.0
20/06:00pm 19.8 20.4 18.6 93 0.8 NNE 13 17 7 9 1020.3 1016.3 0.0
20/05:30pm 19.9 20.5 18.7 93 0.8 NE 13 20 7 11 1020.2 1016.2 0.0
20/05:00pm 19.8 19.9 18.3 91 1.0 NE 15 19 8 10 1020.3 1016.3 0.0
20/04:30pm 20.0 20.1 18.3 90 1.1 NE 15 19 8 10 1020.5 1016.5 0.0
20/04:00pm 19.4 19.2 17.5 89 1.2 NE 15 20 8 11 1020.8 1016.8 0.0
20/03:30pm 19.2 18.7 17.7 91 1.0 ENE 17 20 9 11 1020.8 1016.8 0.0
20/03:00pm 19.5 19.4 17.8 90 1.1 NE 15 19 8 10 1021.2 1017.2 0.0
20/02:30pm 19.6 19.2 18.1 91 1.0 NE 17 20 9 11 1021.5 1017.5 0.0
20/02:00pm 19.2 18.9 17.3 89 1.2 NE 15 20 8 11 1021.8 1017.8 0.0
20/01:30pm 19.6 19.0 18.8 95 0.5 NNE 20 28 11 15 1022.0 1018.0 0.0
20/01:00pm 18.9 18.9 18.9 100 0.0 NE 17 22 9 12 1022.4 1018.4 0.0
20/12:30pm 18.1 17.7 18.1 100 0.0 NE 17 22 9 12 1022.8 1018.8 0.0
20/12:00pm 17.8 16.9 17.8 100 0.0 NNE 19 26 10 14 1023.0 1019.0 0.0
20/11:30am 17.3 16.0 17.3 100 0.0 NNE 20 30 11 16 1023.1 1019.1 0.0
20/11:00am 16.7 15.4 16.7 100 0.0 NNE 19 24 10 13 1023.4 1019.5 0.0
20/10:30am 16.6 15.2 16.6 100 0.0 NNE 19 24 10 13 1023.5 1019.6 0.0
20/10:00am 16.3 15.6 16.3 100 0.0 NE 15 19 8 10 1023.7 1019.7 0.0
20/09:30am 16.1 15.7 16.1 100 0.0 NE 13 17 7 9 1023.7 1019.7 0.0
20/09:00am 15.7 15.1 15.7 100 0.0 NE 13 17 7 9 1023.7 1019.7 1.8
20/08:30am 15.6 14.6 15.6 100 0.0 NNE 15 20 8 11 1023.3 1019.4 1.6
20/08:00am 15.3 14.2 15.3 100 0.0 NNE 15 20 8 11 1023.0 1019.0 1.6
20/07:30am 15.1 13.2 15.1 100 0.0 NE 19 24 10 13 1022.5 1018.5 1.6
20/07:00am 15.1 13.5 15.1 100 0.0 NE 17 20 9 11 1022.4 1018.4 1.6
20/06:30am 15.0 13.8 15.0 100 0.0 NE 15 17 8 9 1022.5 1018.5 1.6
20/06:00am 15.0 14.5 15.0 100 0.0 NE 11 15 6 8 1022.3 1018.3 1.6
20/05:30am 14.9 13.6 14.9 100 0.0 NE 15 19 8 10 1022.0 1018.0 1.4
20/05:00am 15.0 13.0 15.0 100 0.0 NE 19 24 10 13 1021.6 1017.6 1.4
20/04:30am 15.2 13.3 15.2 100 0.0 NE 19 22 10 12 1021.6 1017.6 1.4
20/04:00am 15.1 13.5 15.1 100 0.0 NE 17 20 9 11 1021.7 1017.7 1.4
20/03:30am 15.1 13.9 15.1 100 0.0 NE 15 20 8 11 1021.8 1017.8 1.2
20/03:00am 15.1 13.5 15.1 100 0.0 NE 17 19 9 10 1021.9 1017.9 1.2
20/02:30am 15.1 13.5 15.1 100 0.0 NE 17 22 9 12 1022.4 1018.4 1.2
20/02:00am 15.1 14.3 15.1 100 0.0 NE 13 17 7 9 1022.7 1018.7 1.2
20/01:30am 15.0 13.8 15.0 100 0.0 NE 15 20 8 11 1023.1 1019.1 1.2
20/01:00am 15.0 13.8 15.0 100 0.0 NE 15 20 8 11 1023.4 1019.5 1.0
20/12:30am 15.2 14.4 15.2 100 0.0 ENE 13 20 7 11 1023.7 1019.7 1.0
20/12:00am 15.0 13.8 15.0 100 0.0 ENE 15 20 8 11 1023.9 1019.9 0.6
 
Date/Time
EDT
Temp
°C
App
Temp
°C
Dew
Point
°C
Rel
Hum
%
Delta-T
°C
Wind Press
QNH
hPa
Press
MSL
hPa
Rain since
9am
mm
Dir  Spd
km/h
Gust
km/h
Spd
kts
Gust
kts
19/11:30pm 15.2 14.8 15.2 100 0.0 ENE 11 20 6 11 1023.9 1019.9 0.6
19/11:00pm 15.1 13.9 15.1 100 0.0 ENE 15 19 8 10 1024.0 1020.0 0.4
19/10:30pm 15.2 14.1 15.2 100 0.0 ENE 15 20 8 11 1023.9 1019.9 0.4
19/10:00pm 15.5 14.1 15.5 100 0.0 NE 17 20 9 11 1023.5 1019.6 0.4
19/09:30pm 15.9 14.6 15.9 100 0.0 NE 17 22 9 12 1023.2 1019.2 0.2
19/09:00pm 16.3 15.9 16.3 100 0.0 ENE 13 17 7 9 1022.8 1018.8 0.2
19/08:30pm 16.5 17.0 16.5 100 0.0 E 9 13 5 7 1022.4 1018.4 0.0
19/08:00pm 16.5 16.2 16.5 100 0.0 ENE 13 19 7 10 1021.9 1017.9 0.0
19/07:30pm 16.8 16.1 16.5 98 0.2 E 15 17 8 9 1021.7 1017.7 0.0
19/07:00pm 17.5 17.2 16.4 93 0.7 E 13 19 7 10 1021.4 1017.4 0.0
19/06:30pm 18.3 17.6 16.3 88 1.2 E 15 20 8 11 1021.1 1017.0 0.0
19/06:00pm 18.9 18.2 16.3 85 1.6 ENE 15 20 8 11 1020.6 1016.6 0.0
19/05:30pm 20.1 19.4 16.5 80 2.2 E 15 20 8 11 1020.5 1016.5 0.0
19/05:00pm 21.9 21.1 17.1 74 3.0 E 17 24 9 13 1020.3 1016.3 0.0
19/04:30pm 23.0 22.5 17.9 73 3.3 NE 17 22 9 12 1020.4 1016.4 0.0
19/04:00pm 24.2 23.9 18.2 69 3.9 ENE 17 24 9 13 1020.5 1016.5 0.0
19/03:30pm 24.9 25.2 19.5 72 3.6 ENE 17 22 9 12 1020.3 1016.3 0.0
19/03:00pm 25.4 25.9 19.3 69 4.0 NE 15 22 8 12 1020.5 1016.5 0.0
19/02:30pm 25.0 26.7 18.4 66 4.3 SE 7 13 4 7 1020.5 1016.5 0.0
19/02:00pm 25.9 28.0 19.3 67 4.4 SE 7 13 4 7 1020.4 1016.4 0.0
19/01:30pm 24.7 26.4 19.3 72 3.6 SSE 9 13 5 7 1020.7 1016.7 0.0
19/01:00pm 25.2 27.3 18.9 68 4.1 NE 6 9 3 5 1020.7 1016.7 0.0
19/12:30pm 24.9 26.6 18.4 67 4.2 SE 7 15 4 8 1020.7 1016.7 0.0
19/12:00pm 24.0 25.7 18.0 69 3.9 S 6 11 3 6 1020.7 1016.7 0.0
19/11:30am 23.0 24.1 17.9 73 3.3 S 9 13 5 7 1020.7 1016.7 0.0
19/11:00am 22.0 21.7 18.2 79 2.4 SSW 17 26 9 14 1020.3 1016.3 0.0
19/10:30am 21.7 20.0 17.3 76 2.8 S 22 26 12 14 1020.0 1016.0 0.0
19/10:00am 24.7 24.4 16.4 60 5.3 SSE 13 17 7 9 1020.0 1016.0 0.0
19/09:30am 25.3 25.7 17.2 61 5.2 SSE 11 15 6 8 1019.7 1015.6 0.0
19/09:00am 24.3 25.2 16.6 62 4.9 SSE 7 11 4 6 1019.4 1015.4 -

Other Formats:

Comma delimited format used in spreadsheet applications
http://www.bom.gov.au/fwo/IDN60801/IDN60801.99742.axf

JavaScript Object Notation format (JSON) in row-major order
http://www.bom.gov.au/fwo/IDN60801/IDN60801.99742.json